createdAt,value
2023-03-28T00:04:42.418Z,2.47
2023-03-28T00:09:45.896Z,3.19
2023-03-28T00:14:50.809Z,0.39
2023-03-28T00:19:54.575Z,3.05
2023-03-28T00:24:58.694Z,2.90
2023-03-28T00:30:05.075Z,2.92
2023-03-28T00:35:16.012Z,2.34
2023-03-28T00:40:19.805Z,2.64
2023-03-28T00:45:27.091Z,2.59
2023-03-28T00:50:33.960Z,2.62
2023-03-28T00:55:40.737Z,2.62
2023-03-28T01:00:46.964Z,2.69
2023-03-28T01:05:52.182Z,2.66
2023-03-28T01:10:56.416Z,2.64
2023-03-28T01:16:02.727Z,2.64
2023-03-28T01:21:48.832Z,2.79
2023-03-28T01:26:57.033Z,2.56
2023-03-28T01:32:24.625Z,2.75
2023-03-28T01:37:47.011Z,2.54
2023-03-28T01:42:59.604Z,2.22
2023-03-28T01:48:08.719Z,2.17
2023-03-28T01:53:22.930Z,1.75
2023-03-28T01:58:36.869Z,2.21
2023-03-28T02:03:48.973Z,2.13
2023-03-28T02:09:11.069Z,2.09
2023-03-28T02:14:38.639Z,2.40
2023-03-28T02:20:08.965Z,2.45
2023-03-28T02:25:33.446Z,2.09
2023-03-28T02:31:08.615Z,2.43
2023-03-28T02:36:41.364Z,2.74
2023-03-28T02:42:01.370Z,2.57
2023-03-28T02:47:16.687Z,2.67
2023-03-28T02:52:35.073Z,2.56
2023-03-28T02:57:45.630Z,2.78
2023-03-28T03:02:52.470Z,2.73
2023-03-28T03:07:55.995Z,2.71
2023-03-28T03:13:01.955Z,1.92
2023-03-28T03:18:05.904Z,2.37
2023-03-28T03:23:11.111Z,2.69
2023-03-28T03:28:16.365Z,1.08
2023-03-28T03:33:20.052Z,2.67
2023-03-28T03:38:25.947Z,0.81
2023-03-28T03:43:31.578Z,2.02
2023-03-28T03:48:36.637Z,2.28
2023-03-28T03:53:40.807Z,2.24
2023-03-28T03:58:52.355Z,2.34
2023-03-28T04:03:59.267Z,2.52
2023-03-28T04:09:12.386Z,2.37
2023-03-28T04:14:30.150Z,2.54
2023-03-28T04:20:12.963Z,1.57
2023-03-28T04:25:35.393Z,2.47
2023-03-28T04:30:49.466Z,2.38
2023-03-28T04:36:12.253Z,2.06
2023-03-28T04:41:16.918Z,2.39
2023-03-28T04:46:42.262Z,2.39
2023-03-28T04:51:50.617Z,2.34
2023-03-28T04:56:54.847Z,2.29
2023-03-28T05:02:09.163Z,2.30
2023-03-28T05:07:20.599Z,1.71
2023-03-28T05:12:24.890Z,2.23
2023-03-28T05:17:41.116Z,2.25
2023-03-28T05:22:55.104Z,1.93
2023-03-28T05:27:58.994Z,1.62
2023-03-28T05:33:04.437Z,2.20
2023-03-28T05:38:08.344Z,2.17
2023-03-28T05:43:12.786Z,0.72
2023-03-28T05:48:18.504Z,2.16
2023-03-28T05:53:22.282Z,1.36
2023-03-28T05:58:26.244Z,0.68
2023-03-28T06:03:32.162Z,1.92
2023-03-28T06:08:42.416Z,1.91
2023-03-28T06:13:48.512Z,1.78
2023-03-28T06:19:01.370Z,2.22
2023-03-28T06:24:14.838Z,2.21
2023-03-28T06:29:20.024Z,1.77
2023-03-28T06:34:27.124Z,1.51
2023-03-28T06:39:33.891Z,2.40
2023-03-28T06:44:37.586Z,2.03
2023-03-28T06:50:06.092Z,1.46
2023-03-28T06:55:14.570Z,2.62
2023-03-28T07:00:19.541Z,1.27
2023-03-28T07:06:07.606Z,2.81
2023-03-28T07:11:11.767Z,2.70
2023-03-28T07:16:18.311Z,2.62
2023-03-28T07:21:26.344Z,3.04
2023-03-28T07:26:33.707Z,3.16
2023-03-28T07:31:37.973Z,3.24
2023-03-28T07:36:43.295Z,3.40
2023-03-28T07:41:52.242Z,3.50
2023-03-28T07:46:56.293Z,3.56
2023-03-28T07:52:01.534Z,2.58
2023-03-28T07:57:06.233Z,3.34
2023-03-28T08:02:39.787Z,3.46
2023-03-28T08:07:47.190Z,3.61
2023-03-28T08:12:51.121Z,4.08
2023-03-28T08:17:56.305Z,4.13
2023-03-28T08:23:02.931Z,4.35
2023-03-28T08:28:31.682Z,4.46
2023-03-28T08:33:35.502Z,4.16
2023-03-28T08:38:41.787Z,3.69
2023-03-28T08:44:09.805Z,4.84
2023-03-28T08:49:16.616Z,4.77
2023-03-28T08:54:25.894Z,5.09
2023-03-28T08:59:39.622Z,4.98
2023-03-28T09:04:43.364Z,4.76
2023-03-28T09:10:12.114Z,5.12
2023-03-28T09:15:37.187Z,5.36
2023-03-28T09:20:47.555Z,4.88
2023-03-28T09:26:17.100Z,5.46
2023-03-28T09:31:28.035Z,6.09
2023-03-28T09:36:48.854Z,5.97
2023-03-28T09:42:01.992Z,6.44
2023-03-28T09:47:33.079Z,6.52
2023-03-28T09:52:42.597Z,6.03
2023-03-28T09:58:10.482Z,6.64
2023-03-28T10:03:53.092Z,6.38
2023-03-28T10:09:18.578Z,6.89
2023-03-28T10:14:36.626Z,6.18
2023-03-28T10:19:45.064Z,7.32
2023-03-28T10:24:55.761Z,7.39
2023-03-28T10:30:13.074Z,7.64
2023-03-28T10:35:26.564Z,8.02
2023-03-28T10:40:40.677Z,8.38
2023-03-28T10:45:50.999Z,8.07
2023-03-28T10:51:09.641Z,7.99
2023-03-28T10:56:25.921Z,9.07
2023-03-28T11:01:42.039Z,9.02
2023-03-28T11:06:56.195Z,9.37
2023-03-28T11:12:43.818Z,9.44
2023-03-28T11:18:07.999Z,9.47
2023-03-28T11:23:48.976Z,9.47
2023-03-28T11:29:25.938Z,9.24
2023-03-28T11:34:43.150Z,9.23
2023-03-28T11:39:53.539Z,9.39
2023-03-28T11:45:16.965Z,9.45
2023-03-28T11:50:28.527Z,9.79
2023-03-28T11:55:37.348Z,8.84
2023-03-28T12:01:00.875Z,9.10
2023-03-28T12:06:12.922Z,10.48
2023-03-28T12:11:22.454Z,8.68
2023-03-28T12:16:40.704Z,10.24
2023-03-28T12:21:52.602Z,10.25
2023-03-28T12:27:09.486Z,10.51
2023-03-28T12:32:29.842Z,10.37
2023-03-28T12:37:51.456Z,10.22
2023-03-28T12:42:58.618Z,10.88
2023-03-28T12:48:07.351Z,11.03
2023-03-28T12:53:17.270Z,10.60
2023-03-28T12:58:31.284Z,11.15
2023-03-28T13:03:52.383Z,11.13
2023-03-28T13:09:17.323Z,11.55
2023-03-28T13:14:36.631Z,11.77
2023-03-28T13:19:47.602Z,10.23
2023-03-28T13:24:52.814Z,11.61
2023-03-28T13:30:03.678Z,12.05
2023-03-28T13:35:08.974Z,9.97
2023-03-28T13:40:48.233Z,12.12
2023-03-28T13:45:54.883Z,12.01
2023-03-28T13:51:00.692Z,11.75
2023-03-28T13:56:18.709Z,12.22
2023-03-28T14:01:25.995Z,12.41
2023-03-28T14:06:31.426Z,12.40
2023-03-28T14:11:38.880Z,12.72
2023-03-28T14:16:44.135Z,13.32
2023-03-28T14:21:48.788Z,13.25
2023-03-28T14:27:06.959Z,13.78
2023-03-28T14:32:25.303Z,13.93
2023-03-28T14:37:30.006Z,13.87
2023-03-28T14:42:35.111Z,13.84
2023-03-28T14:47:41.656Z,13.83
2023-03-28T14:52:45.840Z,13.80
2023-03-28T14:57:53.430Z,13.99
2023-03-28T15:02:57.274Z,13.89
2023-03-28T15:08:03.020Z,13.77
2023-03-28T15:13:14.245Z,13.62
2023-03-28T15:18:25.296Z,12.22
2023-03-28T15:23:31.231Z,13.48
2023-03-28T15:28:37.414Z,13.35
2023-03-28T15:33:41.048Z,13.66
2023-03-28T15:38:45.675Z,14.14
2023-03-28T15:44:12.947Z,14.46
2023-03-28T15:49:16.597Z,14.32
2023-03-28T15:54:30.854Z,14.47
2023-03-28T15:59:39.428Z,14.50
2023-03-28T16:04:58.240Z,14.81
2023-03-28T16:10:01.737Z,14.70
2023-03-28T16:15:08.467Z,14.70
2023-03-28T16:20:28.659Z,14.78
2023-03-28T16:25:36.849Z,15.04
2023-03-28T16:30:42.530Z,15.09
2023-03-28T16:35:46.464Z,13.75
2023-03-28T16:40:50.083Z,14.74
2023-03-28T16:45:55.012Z,13.69
2023-03-28T16:51:04.598Z,15.02
2023-03-28T16:56:11.959Z,14.67
2023-03-28T17:01:19.312Z,14.46
2023-03-28T17:06:23.148Z,14.68
2023-03-28T17:11:30.576Z,14.30
2023-03-28T17:16:35.503Z,14.07
2023-03-28T17:21:39.258Z,14.00
2023-03-28T17:26:42.747Z,13.39
2023-03-28T17:31:47.623Z,13.19
2023-03-28T17:36:53.446Z,13.29
2023-03-28T17:41:56.999Z,13.09
2023-03-28T17:47:01.935Z,12.25
2023-03-28T17:52:05.638Z,12.58
2023-03-28T17:57:09.587Z,12.28
2023-03-28T18:02:14.720Z,12.35
2023-03-28T18:07:20.691Z,12.00
2023-03-28T18:12:24.543Z,11.85
2023-03-28T18:17:29.589Z,11.66
2023-03-28T18:22:34.740Z,11.72
2023-03-28T18:27:38.347Z,11.24
2023-03-28T18:32:43.360Z,11.13
2023-03-28T18:37:47.112Z,11.02
2023-03-28T18:42:50.976Z,11.31
2023-03-28T18:47:56.187Z,11.23
2023-03-28T18:52:59.776Z,10.98
2023-03-28T18:58:04.624Z,10.95
2023-03-28T19:03:10.844Z,10.87
2023-03-28T19:08:14.451Z,9.96
2023-03-28T19:13:18.164Z,10.38
2023-03-28T19:18:22.973Z,10.64
2023-03-28T19:23:27.990Z,10.57
2023-03-28T19:28:31.631Z,10.44
2023-03-28T19:33:37.089Z,10.52
2023-03-28T19:38:40.832Z,10.33
2023-03-28T19:43:45.159Z,10.40
2023-03-28T19:48:50.097Z,10.40
2023-03-28T19:53:54.381Z,10.35
2023-03-28T19:58:57.973Z,10.32
2023-03-28T20:04:03.062Z,10.31
2023-03-28T20:09:06.710Z,10.21
2023-03-28T20:14:10.283Z,9.96
2023-03-28T20:19:16.236Z,10.16
2023-03-28T20:24:19.887Z,9.85
2023-03-28T20:29:24.764Z,10.05
2023-03-28T20:34:29.779Z,9.77
2023-03-28T20:39:36.929Z,9.78
2023-03-28T20:44:40.551Z,9.82
2023-03-28T20:49:46.123Z,9.94
2023-03-28T20:54:49.912Z,8.18
2023-03-28T20:59:55.288Z,9.94
2023-03-28T21:05:02.226Z,9.98
2023-03-28T21:10:07.539Z,9.87
2023-03-28T21:15:16.930Z,10.03
2023-03-28T21:20:21.882Z,9.96
2023-03-28T21:25:25.411Z,9.82
2023-03-28T21:30:28.843Z,9.79
2023-03-28T21:35:34.291Z,9.75
2023-03-28T21:40:38.023Z,9.64
2023-03-28T21:45:43.880Z,9.58
2023-03-28T21:50:53.697Z,8.81
2023-03-28T21:55:59.302Z,9.17
2023-03-28T22:01:04.365Z,9.23
2023-03-28T22:06:10.944Z,9.67
2023-03-28T22:11:16.759Z,9.17
2023-03-28T22:16:21.751Z,9.37
2023-03-28T22:21:26.859Z,8.97
2023-03-28T22:26:30.828Z,9.42
2023-03-28T22:31:34.350Z,9.43
2023-03-28T22:36:39.244Z,9.49
2023-03-28T22:41:46.006Z,9.27
2023-03-28T22:46:49.651Z,8.96
2023-03-28T22:51:56.259Z,9.14
2023-03-28T22:57:00.571Z,9.11
2023-03-28T23:02:04.517Z,8.68
2023-03-28T23:07:09.569Z,8.12
2023-03-28T23:12:13.169Z,8.90
2023-03-28T23:17:16.750Z,8.82
2023-03-28T23:22:22.382Z,6.45
2023-03-28T23:27:25.891Z,8.26
2023-03-28T23:32:29.443Z,7.91
2023-03-28T23:37:38.399Z,8.09
2023-03-28T23:42:44.468Z,8.63
2023-03-28T23:47:48.573Z,8.40
2023-03-28T23:52:53.714Z,8.76
2023-03-28T23:57:57.286Z,8.74
